Tucana J — V2CX7 — position and weather

sailwx.info

Track history (hours):
 
Tides and Currents Weather Stations Pressure Air Temp Water Temp Dewpoint Dewpoint Depression Visibility Wind Speed Wind Dir Waves Ship Positions

Tucana J

Last reported at 2017-Oct-17 15:16 UTC. Time now 2017-Oct-19 09:31 UTC.
Position N 25°29' W 079°40'.

Length 140 m; draft 7 m.

Type: Ship (hazmat cat A). MMSI: 305140000.

Date/timePositionNaut miles runAvg speedWind from/ knotsBaromVisibWave heightAir tempDewpointWater temp
2017-Oct-17 15:16N 25°29' W 079°40'413.6
2017-Oct-17 15:00N 25°32' W 079°40'611.2
2017-Oct-17 14:30N 25°38' W 079°40'3 5.1
2017-Oct-17 14:00N 25°41' W 079°40'2 3.5
2017-Oct-17 13:29N 25°42' W 079°41'4 8.4
2017-Oct-17 13:00N 25°45' W 079°44'612.8
2017-Oct-17 12:30N 25°49' W 079°49'612.4
2017-Oct-17 12:00N 25°53' W 079°55'611.7
2017-Oct-17 11:30N 25°58' W 079°58'612.4
2017-Oct-17 11:00N 26°03' W 080°02'5 9.7
2017-Oct-17 10:31N 26°06' W 080°07'2 2.9
2017-Oct-17 09:58N 26°04' W 080°07'0 0.0
2017-Oct-17 09:28N 26°04' W 080°07'0 0.0
2017-Oct-17 08:58N 26°04' W 080°07'0 0.0
2017-Oct-17 08:28N 26°04' W 080°07'0 0.0
2017-Oct-17 07:58N 26°04' W 080°07'0 0.0
2017-Oct-17 07:30N 26°04' W 080°07'0 0.4
2017-Oct-17 07:00N 26°04' W 080°07'0 0.0
2017-Oct-17 06:30N 26°04' W 080°07'0 0.0
2017-Oct-17 06:00N 26°04' W 080°07'0 0.0
2017-Oct-17 05:30N 26°04' W 080°07'0 0.0
2017-Oct-17 04:59N 26°04' W 080°07'0 0.0
2017-Oct-17 04:29N 26°04' W 080°07'0 0.0
2017-Oct-17 03:59N 26°04' W 080°07'0 0.0
2017-Oct-17 03:29N 26°04' W 080°07'0 0.0
2017-Oct-17 02:58N 26°04' W 080°07'0 0.0
2017-Oct-17 02:28N 26°04' W 080°07'0 0.0
2017-Oct-17 01:58N 26°04' W 080°07'0 0.0
2017-Oct-17 01:28N 26°04' W 080°07'0 0.0
2017-Oct-17 00:58N 26°04' W 080°07'0 0.0
2017-Oct-17 00:27N 26°04' W 080°07'0 0.0
2017-Oct-17 00:00N 26°04' W 080°07'0 0.0
2017-Oct-16 23:30N 26°04' W 080°07'0 0.0
2017-Oct-16 23:00N 26°04' W 080°07'0 0.0
2017-Oct-16 22:30N 26°04' W 080°07'0 0.0
2017-Oct-16 21:59N 26°04' W 080°07'0 0.0
2017-Oct-16 21:31N 26°04' W 080°07'1 2.9
2017-Oct-16 21:01N 26°06' W 080°07'611.3
2017-Oct-16 20:30N 26°03' W 080°01'816.5
2017-Oct-16 20:00N 25°56' W 079°55'917.2
2017-Oct-16 19:30N 25°50' W 079°49'816.9
2017-Oct-16 19:00N 25°43' W 079°43'713.3
2017-Oct-16 18:30N 25°37' W 079°40'3 6.3
2017-Oct-16 18:00N 25°34' W 079°40'4 9.0
2017-Oct-16 17:30N 25°29' W 079°40'  
2017-Oct-10 12:54N 25°35' W 079°40'4 9.4
2017-Oct-10 12:30N 25°39' W 079°40'2 4.8
2017-Oct-10 12:00N 25°42' W 079°40'2 3.5
2017-Oct-10 11:30N 25°43' W 079°41'5 8.7
2017-Oct-10 10:55N 25°47' W 079°45'511.3
2017-Oct-10 10:30N 25°50' W 079°49'611.2
2017-Oct-10 10:00N 25°54' W 079°53'611.1
2017-Oct-10 09:30N 25°58' W 079°58'611.7
2017-Oct-10 09:00N 26°02' W 080°02'5 9.8
2017-Oct-10 08:30N 26°06' W 080°06'2 2.5
2017-Oct-10 07:49N 26°04' W 080°07'0 0.0
2017-Oct-10 07:24N 26°04' W 080°07'0 0.0
2017-Oct-10 07:00N 26°04' W 080°07'0 0.0
2017-Oct-10 06:24N 26°04' W 080°07'0 0.0
2017-Oct-10 06:00N 26°04' W 080°07'0 0.0
2017-Oct-10 05:27N 26°04' W 080°07'0 0.0
2017-Oct-10 05:00N 26°04' W 080°07'0 0.0
2017-Oct-10 04:29N 26°04' W 080°07'0 0.0
2017-Oct-10 03:56N 26°04' W 080°07'0 0.0
2017-Oct-10 03:29N 26°04' W 080°07'0 0.0
2017-Oct-10 02:59N 26°04' W 080°07'0 0.0
2017-Oct-10 02:28N 26°04' W 080°07'0 0.0
2017-Oct-10 01:55N 26°04' W 080°07'0 0.0
2017-Oct-10 01:28N 26°04' W 080°07'0 0.0
2017-Oct-10 00:58N 26°04' W 080°07'0 0.0
2017-Oct-10 00:21N 26°04' W 080°07'0 0.0
2017-Oct-10 00:00N 26°04' W 080°07'0 0.0
2017-Oct-09 23:27N 26°04' W 080°07'0 0.0
2017-Oct-09 22:57N 26°04' W 080°07'0 0.0
2017-Oct-09 22:30N 26°04' W 080°07'0 0.0
2017-Oct-09 21:44N 26°04' W 080°07'0 0.0
2017-Oct-09 21:26N 26°04' W 080°07'0 0.0
2017-Oct-09 20:59N 26°04' W 080°07'0 0.0
2017-Oct-09 20:14N 26°04' W 080°07'0 0.0
2017-Oct-09 19:47N 26°04' W 080°07'0 0.0
2017-Oct-09 19:28N 26°04' W 080°07'0 0.0
2017-Oct-09 18:55N 26°04' W 080°07'0 0.0
2017-Oct-09 18:25N 26°04' W 080°07'0 0.0
2017-Oct-09 18:00N 26°04' W 080°07'1 1.6
2017-Oct-09 17:30N 26°05' W 080°07'5 7.5
2017-Oct-09 16:50N 26°03' W 080°01'515.6
2017-Oct-09 16:30N 25°60' W 079°58'816.0
2017-Oct-09 16:01N 25°54' W 079°52'816.0
2017-Oct-09 15:30N 25°48' W 079°46'816.0
2017-Oct-09 15:00N 25°41' W 079°40'510.1
2017-Oct-09 14:29N 25°36' W 079°40'  
Track history (hours):
 
Tides and Currents Weather Stations Pressure Air Temp Water Temp Dewpoint Dewpoint Depression Visibility Wind Speed Wind Dir Waves Ship Positions

Tucana J

Last reported at 2017-Oct-17 15:16 UTC. Time now 2017-Oct-19 09:31 UTC.
Position N 25°29' W 079°40'.

Length 140 m; draft 7 m.

Type: Ship (hazmat cat A). MMSI: 305140000.

Date/timePositionNaut miles runAvg speedWind from/ knotsBaromVisibWave heightAir tempDewpointWater temp
2017-Oct-17 15:16N 25°29' W 079°40'413.6
2017-Oct-17 15:00N 25°32' W 079°40'611.2
2017-Oct-17 14:30N 25°38' W 079°40'3 5.1
2017-Oct-17 14:00N 25°41' W 079°40'2 3.5
2017-Oct-17 13:29N 25°42' W 079°41'4 8.4
2017-Oct-17 13:00N 25°45' W 079°44'612.8
2017-Oct-17 12:30N 25°49' W 079°49'612.4
2017-Oct-17 12:00N 25°53' W 079°55'611.7
2017-Oct-17 11:30N 25°58' W 079°58'612.4
2017-Oct-17 11:00N 26°03' W 080°02'5 9.7
2017-Oct-17 10:31N 26°06' W 080°07'2 2.9
2017-Oct-17 09:58N 26°04' W 080°07'0 0.0
2017-Oct-17 09:28N 26°04' W 080°07'0 0.0
2017-Oct-17 08:58N 26°04' W 080°07'0 0.0
2017-Oct-17 08:28N 26°04' W 080°07'0 0.0
2017-Oct-17 07:58N 26°04' W 080°07'0 0.0
2017-Oct-17 07:30N 26°04' W 080°07'0 0.4
2017-Oct-17 07:00N 26°04' W 080°07'0 0.0
2017-Oct-17 06:30N 26°04' W 080°07'0 0.0
2017-Oct-17 06:00N 26°04' W 080°07'0 0.0
2017-Oct-17 05:30N 26°04' W 080°07'0 0.0
2017-Oct-17 04:59N 26°04' W 080°07'0 0.0
2017-Oct-17 04:29N 26°04' W 080°07'0 0.0
2017-Oct-17 03:59N 26°04' W 080°07'0 0.0
2017-Oct-17 03:29N 26°04' W 080°07'0 0.0
2017-Oct-17 02:58N 26°04' W 080°07'0 0.0
2017-Oct-17 02:28N 26°04' W 080°07'0 0.0
2017-Oct-17 01:58N 26°04' W 080°07'0 0.0
2017-Oct-17 01:28N 26°04' W 080°07'0 0.0
2017-Oct-17 00:58N 26°04' W 080°07'0 0.0
2017-Oct-17 00:27N 26°04' W 080°07'0 0.0
2017-Oct-17 00:00N 26°04' W 080°07'0 0.0
2017-Oct-16 23:30N 26°04' W 080°07'0 0.0
2017-Oct-16 23:00N 26°04' W 080°07'0 0.0
2017-Oct-16 22:30N 26°04' W 080°07'0 0.0
2017-Oct-16 21:59N 26°04' W 080°07'0 0.0
2017-Oct-16 21:31N 26°04' W 080°07'1 2.9
2017-Oct-16 21:01N 26°06' W 080°07'611.3
2017-Oct-16 20:30N 26°03' W 080°01'816.5
2017-Oct-16 20:00N 25°56' W 079°55'917.2
2017-Oct-16 19:30N 25°50' W 079°49'816.9
2017-Oct-16 19:00N 25°43' W 079°43'713.3
2017-Oct-16 18:30N 25°37' W 079°40'3 6.3
2017-Oct-16 18:00N 25°34' W 079°40'4 9.0
2017-Oct-16 17:30N 25°29' W 079°40'  
2017-Oct-10 12:54N 25°35' W 079°40'4 9.4
2017-Oct-10 12:30N 25°39' W 079°40'2 4.8
2017-Oct-10 12:00N 25°42' W 079°40'2 3.5
2017-Oct-10 11:30N 25°43' W 079°41'5 8.7
2017-Oct-10 10:55N 25°47' W 079°45'511.3
2017-Oct-10 10:30N 25°50' W 079°49'611.2
2017-Oct-10 10:00N 25°54' W 079°53'611.1
2017-Oct-10 09:30N 25°58' W 079°58'611.7
2017-Oct-10 09:00N 26°02' W 080°02'5 9.8
2017-Oct-10 08:30N 26°06' W 080°06'2 2.5
2017-Oct-10 07:49N 26°04' W 080°07'0 0.0
2017-Oct-10 07:24N 26°04' W 080°07'0 0.0
2017-Oct-10 07:00N 26°04' W 080°07'0 0.0
2017-Oct-10 06:24N 26°04' W 080°07'0 0.0
2017-Oct-10 06:00N 26°04' W 080°07'0 0.0
2017-Oct-10 05:27N 26°04' W 080°07'0 0.0
2017-Oct-10 05:00N 26°04' W 080°07'0 0.0
2017-Oct-10 04:29N 26°04' W 080°07'0 0.0
2017-Oct-10 03:56N 26°04' W 080°07'0 0.0
2017-Oct-10 03:29N 26°04' W 080°07'0 0.0
2017-Oct-10 02:59N 26°04' W 080°07'0 0.0
2017-Oct-10 02:28N 26°04' W 080°07'0 0.0
2017-Oct-10 01:55N 26°04' W 080°07'0 0.0
2017-Oct-10 01:28N 26°04' W 080°07'0 0.0
2017-Oct-10 00:58N 26°04' W 080°07'0 0.0
2017-Oct-10 00:21N 26°04' W 080°07'0 0.0
2017-Oct-10 00:00N 26°04' W 080°07'0 0.0
2017-Oct-09 23:27N 26°04' W 080°07'0 0.0
2017-Oct-09 22:57N 26°04' W 080°07'0 0.0
2017-Oct-09 22:30N 26°04' W 080°07'0 0.0
2017-Oct-09 21:44N 26°04' W 080°07'0 0.0
2017-Oct-09 21:26N 26°04' W 080°07'0 0.0
2017-Oct-09 20:59N 26°04' W 080°07'0 0.0
2017-Oct-09 20:14N 26°04' W 080°07'0 0.0
2017-Oct-09 19:47N 26°04' W 080°07'0 0.0
2017-Oct-09 19:28N 26°04' W 080°07'0 0.0
2017-Oct-09 18:55N 26°04' W 080°07'0 0.0
2017-Oct-09 18:25N 26°04' W 080°07'0 0.0
2017-Oct-09 18:00N 26°04' W 080°07'1 1.6
2017-Oct-09 17:30N 26°05' W 080°07'5 7.5
2017-Oct-09 16:50N 26°03' W 080°01'515.6
2017-Oct-09 16:30N 25°60' W 079°58'816.0
2017-Oct-09 16:01N 25°54' W 079°52'816.0
2017-Oct-09 15:30N 25°48' W 079°46'816.0
2017-Oct-09 15:00N 25°41' W 079°40'510.1
2017-Oct-09 14:29N 25°36' W 079°40'  

Dump ship's entire track history